createdAt,value
2019-03-24T00:02:14.804Z,66.87
2019-03-24T00:04:42.551Z,67.01
2019-03-24T00:07:10.115Z,67.01
2019-03-24T00:09:37.603Z,66.74
2019-03-24T00:12:05.451Z,67.23
2019-03-24T00:14:32.918Z,67.23
2019-03-24T00:17:00.777Z,67.04
2019-03-24T00:19:33.901Z,67.24
2019-03-24T00:22:01.386Z,67.24
2019-03-24T00:24:29.684Z,66.99
2019-03-24T00:26:57.468Z,67.00
2019-03-24T00:29:24.996Z,67.00
2019-03-24T00:31:52.599Z,67.07
2019-03-24T00:34:20.398Z,67.04
2019-03-24T00:36:47.889Z,67.04
2019-03-24T00:39:15.582Z,67.24
2019-03-24T00:41:43.712Z,67.24
2019-03-24T00:44:11.214Z,67.30
2019-03-24T00:46:38.729Z,67.31
2019-03-24T00:49:06.603Z,67.27
2019-03-24T00:51:34.121Z,67.25
2019-03-24T00:54:01.659Z,67.25
2019-03-24T00:56:31.863Z,67.26
2019-03-24T00:58:59.762Z,67.13
2019-03-24T01:01:29.503Z,67.60
2019-03-24T01:03:56.960Z,67.60
2019-03-24T01:06:26.189Z,67.37
2019-03-24T01:08:53.803Z,67.38
2019-03-24T01:11:21.679Z,67.44
2019-03-24T01:13:49.293Z,67.15
2019-03-24T01:16:16.912Z,67.15
2019-03-24T01:18:44.468Z,67.61
2019-03-24T01:21:15.614Z,67.61
2019-03-24T01:23:43.134Z,67.70
2019-03-24T01:26:10.628Z,67.48
2019-03-24T01:28:38.396Z,67.72
2019-03-24T01:31:06.106Z,67.72
2019-03-24T01:33:33.751Z,67.78
2019-03-24T01:36:01.201Z,67.83
2019-03-24T01:38:29.018Z,67.83
2019-03-24T01:40:56.553Z,67.73
2019-03-24T01:43:24.065Z,67.73
2019-03-24T01:45:58.483Z,67.94
2019-03-24T01:48:21.101Z,67.93
2019-03-24T01:50:48.580Z,67.96
2019-03-24T01:53:16.163Z,67.95
2019-03-24T01:55:44.972Z,67.95
2019-03-24T01:58:12.441Z,68.10
2019-03-24T02:00:40.126Z,68.16
2019-03-24T02:03:07.708Z,68.01
2019-03-24T02:05:35.192Z,68.01
2019-03-24T02:08:02.756Z,68.54
2019-03-24T02:10:30.632Z,68.46
2019-03-24T02:12:58.205Z,68.46
2019-03-24T02:15:25.740Z,68.55
2019-03-24T02:17:53.260Z,68.55
2019-03-24T02:20:21.023Z,68.61
2019-03-24T02:22:48.498Z,68.66
2019-03-24T02:25:16.093Z,68.66
2019-03-24T02:27:43.629Z,68.75
2019-03-24T02:30:12.517Z,68.86
2019-03-24T02:32:40.125Z,68.64
2019-03-24T02:35:07.683Z,68.64
2019-03-24T02:37:35.286Z,68.78
2019-03-24T02:40:04.732Z,68.73
2019-03-24T02:42:32.392Z,69.13
2019-03-24T02:45:01.210Z,68.91
2019-03-24T02:47:29.060Z,68.69
2019-03-24T02:49:56.674Z,68.69
2019-03-24T02:52:24.199Z,69.09
2019-03-24T02:54:51.814Z,69.15
2019-03-24T02:57:19.638Z,69.15
2019-03-24T02:59:47.578Z,69.21
2019-03-24T03:02:15.120Z,69.47
2019-03-24T03:04:42.669Z,69.38
2019-03-24T03:07:10.233Z,69.38
2019-03-24T03:09:37.795Z,69.27
2019-03-24T03:12:05.616Z,69.32
2019-03-24T03:14:34.277Z,69.35
2019-03-24T03:17:02.155Z,69.27
2019-03-24T03:19:30.003Z,69.62
2019-03-24T03:21:57.578Z,69.62
2019-03-24T03:24:25.045Z,69.47
2019-03-24T03:26:52.662Z,69.43
2019-03-24T03:29:20.476Z,69.42
2019-03-24T03:31:49.847Z,69.37
2019-03-24T03:34:17.388Z,69.34
2019-03-24T03:36:48.155Z,69.34
2019-03-24T03:39:22.764Z,69.36
2019-03-24T03:41:50.316Z,69.91
2019-03-24T03:44:18.043Z,69.91
2019-03-24T03:46:52.553Z,69.53
2019-03-24T03:49:14.823Z,69.50
2019-03-24T03:51:42.648Z,69.52
2019-03-24T03:54:14.855Z,69.49
2019-03-24T03:56:42.059Z,69.50
2019-03-24T03:59:09.647Z,69.47
2019-03-24T04:01:37.410Z,69.45
2019-03-24T04:04:07.985Z,69.45
2019-03-24T04:06:35.887Z,69.41
2019-03-24T04:09:04.118Z,69.38
2019-03-24T04:11:35.993Z,69.48
2019-03-24T04:14:01.232Z,69.48
2019-03-24T04:16:28.818Z,69.26
2019-03-24T04:18:56.606Z,69.26
2019-03-24T04:21:24.131Z,69.00
2019-03-24T04:23:51.671Z,69.00
2019-03-24T04:26:19.214Z,69.15
2019-03-24T04:28:48.959Z,69.17
2019-03-24T04:31:16.420Z,69.19
2019-03-24T04:33:44.683Z,69.22
2019-03-24T04:36:14.874Z,69.19
2019-03-24T04:38:42.743Z,69.12
2019-03-24T04:41:10.313Z,69.14
2019-03-24T04:43:37.751Z,69.15
2019-03-24T04:46:05.578Z,69.15
2019-03-24T04:48:35.070Z,69.41
2019-03-24T04:51:04.204Z,69.41
2019-03-24T04:53:31.971Z,69.11
2019-03-24T04:55:59.566Z,69.09
2019-03-24T04:58:27.127Z,69.07
2019-03-24T05:00:54.842Z,69.08
2019-03-24T05:03:22.340Z,69.10
2019-03-24T05:05:49.779Z,69.10
2019-03-24T05:08:17.661Z,69.08
2019-03-24T05:10:45.504Z,69.04
2019-03-24T05:13:12.982Z,69.04
2019-03-24T05:15:40.537Z,69.07
2019-03-24T05:18:08.162Z,69.06
2019-03-24T05:20:35.985Z,69.41
2019-03-24T05:23:03.502Z,69.41
2019-03-24T05:25:31.035Z,68.90
2019-03-24T05:27:58.644Z,68.90
2019-03-24T05:30:26.430Z,69.15
2019-03-24T05:32:54.032Z,69.15
2019-03-24T05:35:21.577Z,69.09
2019-03-24T05:37:49.452Z,69.09
2019-03-24T05:40:17.368Z,69.14
2019-03-24T05:42:44.835Z,69.15
2019-03-24T05:45:12.350Z,68.87
2019-03-24T05:47:40.201Z,68.87
2019-03-24T05:50:07.687Z,69.14
2019-03-24T05:52:35.250Z,69.14
2019-03-24T05:55:02.744Z,69.02
2019-03-24T05:57:30.677Z,69.32
2019-03-24T06:00:01.246Z,69.15
2019-03-24T06:02:28.788Z,68.89
2019-03-24T06:04:56.599Z,68.89
2019-03-24T06:07:24.122Z,69.01
2019-03-24T06:09:52.001Z,69.02
2019-03-24T06:12:19.591Z,69.19
2019-03-24T06:14:47.387Z,69.19
2019-03-24T06:17:14.926Z,68.68
2019-03-24T06:19:42.833Z,68.68
2019-03-24T06:22:10.580Z,68.91
2019-03-24T06:24:38.201Z,68.89
2019-03-24T06:27:05.799Z,68.91
2019-03-24T06:29:33.408Z,68.96
2019-03-24T06:32:01.207Z,68.96
2019-03-24T06:34:28.657Z,68.89
2019-03-24T06:36:56.203Z,68.67
2019-03-24T06:39:23.712Z,68.67
2019-03-24T06:41:51.558Z,68.73
2019-03-24T06:44:19.013Z,68.85
2019-03-24T06:46:46.582Z,68.52
2019-03-24T06:49:14.078Z,68.25
2019-03-24T06:51:43.921Z,68.25
2019-03-24T06:54:11.462Z,68.27
2019-03-24T06:56:38.936Z,68.20
2019-03-24T06:59:06.532Z,68.16
2019-03-24T07:01:34.419Z,67.79
2019-03-24T07:04:01.999Z,67.79
2019-03-24T07:06:34.781Z,67.56
2019-03-24T07:09:03.882Z,67.56
2019-03-24T07:11:31.478Z,67.58
2019-03-24T07:13:59.008Z,67.56
2019-03-24T07:16:26.796Z,67.76
2019-03-24T07:18:54.353Z,67.76
2019-03-24T07:21:21.894Z,67.27
2019-03-24T07:23:49.422Z,67.08
2019-03-24T07:26:17.218Z,67.02
2019-03-24T07:28:44.737Z,66.98
2019-03-24T07:31:12.197Z,67.07
2019-03-24T07:33:40.034Z,67.07
2019-03-24T07:36:07.589Z,66.82
2019-03-24T07:38:35.111Z,66.56
2019-03-24T07:41:03.109Z,66.27
2019-03-24T07:43:30.695Z,66.27
2019-03-24T07:45:58.274Z,66.43
2019-03-24T07:48:25.825Z,65.83
2019-03-24T07:50:53.704Z,65.83
2019-03-24T07:53:21.211Z,65.92
2019-03-24T07:55:48.741Z,65.90
2019-03-24T07:58:16.573Z,65.60
2019-03-24T08:00:47.167Z,65.60
2019-03-24T08:03:14.689Z,65.54
2019-03-24T08:05:42.570Z,65.36
2019-03-24T08:08:10.151Z,65.19
2019-03-24T08:10:37.746Z,65.19
2019-03-24T08:13:05.570Z,64.66
2019-03-24T08:15:33.172Z,64.14
2019-03-24T08:18:00.758Z,64.14
2019-03-24T08:20:28.622Z,63.76
2019-03-24T08:22:56.148Z,63.72
2019-03-24T08:25:23.694Z,62.77
2019-03-24T08:27:51.495Z,62.68
2019-03-24T08:30:20.352Z,62.68
2019-03-24T08:32:48.124Z,62.31
2019-03-24T08:35:15.888Z,62.04
2019-03-24T08:37:43.341Z,62.08
2019-03-24T08:40:10.908Z,62.31
2019-03-24T08:42:38.972Z,61.42
2019-03-24T08:45:08.190Z,61.42
2019-03-24T08:47:35.989Z,60.93
2019-03-24T08:50:05.863Z,60.37
2019-03-24T08:52:33.502Z,60.00
2019-03-24T08:55:01.061Z,59.99
2019-03-24T08:57:29.423Z,59.79
2019-03-24T08:59:59.767Z,60.55
2019-03-24T09:02:27.313Z,60.55
2019-03-24T09:04:55.106Z,60.71
2019-03-24T09:07:22.727Z,60.71
2019-03-24T09:09:52.150Z,61.57
2019-03-24T09:12:23.022Z,61.95
2019-03-24T09:14:50.647Z,62.23
2019-03-24T09:17:18.173Z,62.34
2019-03-24T09:19:50.153Z,62.52
2019-03-24T09:22:17.704Z,62.52
2019-03-24T09:24:45.228Z,62.26
2019-03-24T09:27:13.035Z,62.09
2019-03-24T09:29:40.629Z,61.91
2019-03-24T09:32:08.579Z,61.60
2019-03-24T09:34:36.380Z,61.10
2019-03-24T09:37:05.084Z,60.69
2019-03-24T09:39:32.647Z,60.53
2019-03-24T09:42:00.496Z,60.36
2019-03-24T09:44:28.032Z,60.26
2019-03-24T09:46:55.582Z,60.23
2019-03-24T09:49:24.671Z,60.17
2019-03-24T09:51:52.258Z,60.17
2019-03-24T09:54:26.743Z,60.08
2019-03-24T09:56:54.521Z,59.90
2019-03-24T09:59:24.067Z,60.08
2019-03-24T10:01:51.617Z,60.08
2019-03-24T10:04:21.513Z,60.11
2019-03-24T10:06:49.128Z,60.20
2019-03-24T10:09:19.653Z,59.84
2019-03-24T10:11:49.120Z,59.25
2019-03-24T10:14:16.819Z,58.55
2019-03-24T10:16:44.396Z,57.93
2019-03-24T10:19:14.266Z,57.91
2019-03-24T10:21:41.387Z,57.91
2019-03-24T10:24:13.944Z,57.79
2019-03-24T10:26:41.809Z,57.65
2019-03-24T10:29:09.333Z,56.86
2019-03-24T10:31:39.149Z,56.86
2019-03-24T10:34:07.257Z,55.84
2019-03-24T10:36:36.867Z,55.08
2019-03-24T10:39:05.318Z,55.08
2019-03-24T10:41:35.022Z,54.15
2019-03-24T10:44:02.343Z,53.22
2019-03-24T10:46:29.866Z,51.63
2019-03-24T10:48:57.733Z,49.66
2019-03-24T10:51:25.234Z,47.80
2019-03-24T10:53:52.798Z,44.96
2019-03-24T10:56:20.601Z,44.96
2019-03-24T10:58:48.145Z,44.77
2019-03-24T11:01:20.214Z,44.77
2019-03-24T11:03:48.081Z,45.19
2019-03-24T11:06:17.305Z,44.94
2019-03-24T11:08:44.936Z,44.94
2019-03-24T11:11:13.859Z,45.32
2019-03-24T11:13:41.457Z,45.40
2019-03-24T11:16:13.218Z,44.95
2019-03-24T11:18:43.588Z,44.58
2019-03-24T11:21:11.157Z,45.25
2019-03-24T11:23:38.759Z,45.24
2019-03-24T11:26:09.615Z,44.45
2019-03-24T11:28:38.479Z,43.31
2019-03-24T11:31:06.061Z,45.12
2019-03-24T11:33:33.888Z,45.12
2019-03-24T11:36:03.836Z,49.38
2019-03-24T11:38:31.391Z,49.38
2019-03-24T11:40:59.172Z,49.61
2019-03-24T11:43:28.130Z,48.79
2019-03-24T11:45:55.615Z,49.04
2019-03-24T11:48:23.378Z,50.23
2019-03-24T11:50:51.016Z,51.70
2019-03-24T11:53:18.593Z,51.92
2019-03-24T11:55:51.930Z,49.74
2019-03-24T11:58:19.446Z,47.86
2019-03-24T12:00:49.736Z,45.84
2019-03-24T12:03:20.223Z,44.69
2019-03-24T12:05:47.776Z,43.86
2019-03-24T12:08:18.283Z,44.48
2019-03-24T12:10:48.671Z,45.83
2019-03-24T12:13:16.233Z,45.83
2019-03-24T12:15:43.695Z,47.38
2019-03-24T12:18:11.495Z,47.38
2019-03-24T12:20:40.400Z,47.51
2019-03-24T12:23:07.868Z,48.33
2019-03-24T12:25:35.673Z,49.88
2019-03-24T12:28:03.555Z,51.18
2019-03-24T12:30:32.359Z,53.47
2019-03-24T12:33:00.176Z,53.47
2019-03-24T12:35:27.772Z,53.87
2019-03-24T12:37:55.225Z,54.08
2019-03-24T12:40:22.771Z,54.25
2019-03-24T12:42:52.261Z,53.73
2019-03-24T12:45:20.105Z,51.71
2019-03-24T12:47:49.490Z,49.88
2019-03-24T12:50:16.988Z,48.32
2019-03-24T12:52:49.873Z,47.16
2019-03-24T12:55:17.371Z,47.21
2019-03-24T12:57:44.852Z,46.08
2019-03-24T13:00:18.761Z,46.08
2019-03-24T13:02:48.190Z,46.18
2019-03-24T13:05:34.230Z,47.23
2019-03-24T13:08:13.804Z,47.46
2019-03-24T13:10:51.972Z,47.62
2019-03-24T13:13:18.532Z,48.83
2019-03-24T13:16:07.651Z,50.25
2019-03-24T13:18:37.909Z,50.25
2019-03-24T13:21:05.491Z,51.04
2019-03-24T13:23:33.320Z,51.35
2019-03-24T13:26:10.177Z,51.43
2019-03-24T13:31:37.188Z,50.22
2019-03-24T13:34:06.624Z,50.21
2019-03-24T13:36:39.574Z,49.74
2019-03-24T13:39:09.135Z,48.81
2019-03-24T13:41:40.031Z,49.48
2019-03-24T13:44:07.871Z,49.48
2019-03-24T13:46:38.510Z,49.27
2019-03-24T13:49:07.219Z,49.34
2019-03-24T13:51:35.095Z,49.66
2019-03-24T13:54:06.877Z,49.73
2019-03-24T13:56:38.610Z,49.68
2019-03-24T13:59:17.629Z,48.33
2019-03-24T14:01:48.185Z,48.33
2019-03-24T14:04:15.787Z,48.04
2019-03-24T14:06:45.700Z,48.04
2019-03-24T14:09:13.697Z,47.60
2019-03-24T14:11:41.221Z,47.80
2019-03-24T14:14:09.080Z,47.60
2019-03-24T14:16:38.898Z,47.56
2019-03-24T14:19:08.196Z,47.33
2019-03-24T14:21:38.491Z,46.23
2019-03-24T14:24:06.059Z,46.23
2019-03-24T14:26:33.643Z,45.36
2019-03-24T14:29:04.246Z,45.32
2019-03-24T14:31:34.394Z,45.32
2019-03-24T14:34:01.971Z,44.42
2019-03-24T14:36:44.845Z,44.12
2019-03-24T14:39:14.088Z,43.78
2019-03-24T14:41:44.972Z,43.43
2019-03-24T14:44:12.477Z,43.04
2019-03-24T14:46:40.017Z,42.90
2019-03-24T14:49:10.627Z,42.71
2019-03-24T14:51:41.189Z,42.83
2019-03-24T14:54:10.843Z,41.71
2019-03-24T14:56:40.972Z,42.01
2019-03-24T14:59:08.494Z,41.09
2019-03-24T15:01:36.354Z,41.09
2019-03-24T15:04:04.295Z,40.39
2019-03-24T15:06:31.846Z,40.27
2019-03-24T15:08:59.418Z,39.93
2019-03-24T15:11:29.711Z,39.46
2019-03-24T15:13:57.344Z,39.05
2019-03-24T15:16:26.028Z,38.75
2019-03-24T15:18:53.591Z,38.43
2019-03-24T15:21:24.446Z,38.49
2019-03-24T15:23:52.270Z,38.34
2019-03-24T15:26:19.798Z,38.36
2019-03-24T15:28:47.411Z,37.64
2019-03-24T15:31:17.991Z,37.64
2019-03-24T15:33:52.713Z,37.99
2019-03-24T15:36:22.254Z,37.84
2019-03-24T15:38:52.479Z,36.21
2019-03-24T15:41:20.022Z,36.21
2019-03-24T15:43:49.694Z,36.38
2019-03-24T15:46:19.170Z,36.33
2019-03-24T15:48:46.703Z,36.15
2019-03-24T15:51:17.271Z,36.10
2019-03-24T15:53:45.203Z,36.09
2019-03-24T15:56:15.703Z,35.75
2019-03-24T15:58:43.248Z,34.30
2019-03-24T16:01:12.223Z,34.30
2019-03-24T16:03:45.890Z,34.39
2019-03-24T16:06:13.459Z,34.39
2019-03-24T16:08:45.754Z,35.79
2019-03-24T16:11:13.319Z,37.64
2019-03-24T16:13:41.631Z,39.03
2019-03-24T16:16:09.426Z,40.52
2019-03-24T16:18:43.221Z,42.20
2019-03-24T16:21:13.606Z,42.20
2019-03-24T16:23:44.230Z,43.10
2019-03-24T16:26:14.210Z,43.10
2019-03-24T16:28:41.786Z,43.68
2019-03-24T16:31:09.516Z,44.06
2019-03-24T16:33:37.180Z,44.26
2019-03-24T16:36:09.755Z,44.49
2019-03-24T16:38:48.294Z,44.50
2019-03-24T16:41:12.647Z,44.72
2019-03-24T16:43:43.207Z,45.31
2019-03-24T16:46:11.078Z,45.31
2019-03-24T16:48:38.639Z,45.29
2019-03-24T16:51:06.209Z,45.70
2019-03-24T16:53:35.675Z,45.70
2019-03-24T16:56:05.144Z,45.75
2019-03-24T16:58:33.880Z,46.05
2019-03-24T17:01:04.793Z,46.05
2019-03-24T17:03:35.153Z,46.11
2019-03-24T17:06:02.661Z,46.31
2019-03-24T17:08:30.944Z,46.46
2019-03-24T17:10:58.546Z,46.63
2019-03-24T17:13:27.255Z,46.64
2019-03-24T17:15:58.060Z,46.64
2019-03-24T17:18:25.647Z,47.11
2019-03-24T17:20:56.247Z,47.30
2019-03-24T17:23:27.039Z,47.46
2019-03-24T17:25:54.583Z,47.53
2019-03-24T17:28:33.160Z,47.53
2019-03-24T17:31:00.770Z,47.98
2019-03-24T17:33:29.399Z,48.20
2019-03-24T17:35:57.249Z,48.63
2019-03-24T17:38:35.269Z,48.63
2019-03-24T17:41:03.176Z,49.01
2019-03-24T17:43:31.155Z,49.01
2019-03-24T17:45:58.993Z,49.48
2019-03-24T17:48:28.626Z,49.48
2019-03-24T17:50:56.175Z,49.91
2019-03-24T17:53:23.766Z,49.91
2019-03-24T17:55:52.427Z,50.31
2019-03-24T17:58:25.240Z,50.31
2019-03-24T18:00:54.906Z,50.57
2019-03-24T18:03:34.193Z,50.57
2019-03-24T18:06:04.459Z,50.42
2019-03-24T18:08:34.493Z,50.55
2019-03-24T18:11:02.105Z,51.32
2019-03-24T18:13:32.665Z,50.97
2019-03-24T18:16:00.468Z,51.08
2019-03-24T18:18:30.445Z,51.08
2019-03-24T18:20:58.016Z,51.44
2019-03-24T18:23:25.895Z,51.06
2019-03-24T18:25:55.798Z,51.06
2019-03-24T18:28:23.388Z,51.91
2019-03-24T18:30:57.137Z,51.91
2019-03-24T18:33:22.230Z,52.41
2019-03-24T18:35:49.748Z,52.41
2019-03-24T18:38:17.549Z,52.02
2019-03-24T18:40:50.676Z,52.02
2019-03-24T18:43:22.224Z,52.47
2019-03-24T18:45:59.555Z,52.46
2019-03-24T18:48:30.024Z,52.46
2019-03-24T18:50:57.812Z,52.85
2019-03-24T18:53:26.667Z,52.81
2019-03-24T18:55:54.114Z,52.81
2019-03-24T18:58:25.567Z,52.99
2019-03-24T19:00:53.016Z,53.05
2019-03-24T19:03:20.562Z,52.97
2019-03-24T19:05:57.136Z,52.97
2019-03-24T19:08:24.677Z,53.33
2019-03-24T19:10:52.275Z,53.77
2019-03-24T19:13:27.283Z,53.77
2019-03-24T19:15:54.772Z,53.72
2019-03-24T19:18:22.657Z,53.85
2019-03-24T19:20:55.793Z,53.84
2019-03-24T19:23:23.410Z,53.84
2019-03-24T19:25:55.278Z,54.09
2019-03-24T19:28:22.822Z,54.09
2019-03-24T19:30:52.164Z,54.38
2019-03-24T19:33:25.480Z,54.46
2019-03-24T19:35:53.011Z,54.31
2019-03-24T19:38:22.090Z,54.19
2019-03-24T19:40:49.668Z,54.06
2019-03-24T19:43:17.225Z,54.19
2019-03-24T19:45:45.107Z,53.96
2019-03-24T19:48:12.680Z,53.96
2019-03-24T19:50:44.829Z,54.14
2019-03-24T19:53:12.978Z,53.70
2019-03-24T19:55:40.589Z,53.70
2019-03-24T19:58:08.170Z,54.02
2019-03-24T20:03:11.214Z,54.22
2019-03-24T20:05:42.193Z,54.22
2019-03-24T20:08:11.288Z,53.89
2019-03-24T20:10:40.537Z,53.94
2019-03-24T20:13:09.155Z,53.96
2019-03-24T20:15:40.170Z,53.72
2019-03-24T20:18:07.735Z,54.46
2019-03-24T20:20:35.275Z,53.79
2019-03-24T20:23:03.545Z,54.08
2019-03-24T20:25:31.181Z,54.08
2019-03-24T20:27:59.119Z,54.62
2019-03-24T20:30:28.852Z,54.64
2019-03-24T20:32:56.372Z,54.64
2019-03-24T20:35:23.915Z,54.21
2019-03-24T20:37:51.756Z,54.21
2019-03-24T20:40:19.235Z,54.32
2019-03-24T20:42:49.581Z,55.24
2019-03-24T20:45:31.248Z,54.93
2019-03-24T20:47:46.382Z,54.93
2019-03-24T20:50:18.678Z,54.84
2019-03-24T20:52:46.303Z,54.92
2019-03-24T20:55:13.773Z,54.72
2019-03-24T20:57:41.642Z,54.72
2019-03-24T21:00:12.289Z,54.89
2019-03-24T21:02:42.901Z,54.76
2019-03-24T21:05:28.039Z,54.64
2019-03-24T21:07:55.656Z,54.56
2019-03-24T21:10:25.752Z,54.79
2019-03-24T21:12:55.681Z,54.53
2019-03-24T21:15:23.295Z,54.53
2019-03-24T21:17:51.087Z,54.48
2019-03-24T21:20:18.606Z,54.43
2019-03-24T21:22:53.199Z,54.41
2019-03-24T21:25:22.076Z,54.36
2019-03-24T21:27:49.529Z,54.33
2019-03-24T21:30:17.122Z,54.71
2019-03-24T21:32:46.344Z,54.70
2019-03-24T21:35:15.108Z,54.19
2019-03-24T21:37:45.222Z,55.09
2019-03-24T21:40:15.722Z,55.40
2019-03-24T21:42:43.231Z,55.40
2019-03-24T21:45:10.777Z,55.06
2019-03-24T21:47:38.544Z,55.05
2019-03-24T21:50:06.056Z,54.50
2019-03-24T21:52:33.614Z,54.50
2019-03-24T21:55:01.484Z,54.84
2019-03-24T21:57:33.973Z,54.91
2019-03-24T22:00:01.229Z,55.01
2019-03-24T22:02:31.249Z,55.78
2019-03-24T22:04:58.966Z,55.33
2019-03-24T22:07:26.570Z,55.33
2019-03-24T22:09:55.403Z,55.72
2019-03-24T22:12:26.034Z,55.91
2019-03-24T22:14:53.631Z,56.04
2019-03-24T22:17:21.526Z,56.21
2019-03-24T22:19:49.445Z,56.73
2019-03-24T22:22:17.016Z,56.96
2019-03-24T22:24:44.895Z,57.04
2019-03-24T22:27:12.501Z,57.04
2019-03-24T22:29:40.087Z,56.80
2019-03-24T22:32:07.854Z,56.93
2019-03-24T22:34:35.321Z,57.36
2019-03-24T22:37:11.299Z,57.36
2019-03-24T22:39:32.829Z,57.17
2019-03-24T22:42:00.355Z,57.25
2019-03-24T22:44:27.923Z,57.44
2019-03-24T22:46:55.699Z,57.26
2019-03-24T22:49:24.398Z,57.26
2019-03-24T22:51:51.944Z,57.45
2019-03-24T22:54:19.838Z,57.64
2019-03-24T22:56:47.389Z,57.71
2019-03-24T22:59:14.967Z,57.71
2019-03-24T23:01:42.859Z,57.68
2019-03-24T23:04:10.548Z,57.68
2019-03-24T23:06:44.144Z,57.98
2019-03-24T23:09:11.971Z,58.07
2019-03-24T23:11:39.590Z,58.08
2019-03-24T23:14:07.108Z,58.50
2019-03-24T23:16:34.574Z,58.50
2019-03-24T23:19:02.155Z,58.19
2019-03-24T23:21:31.037Z,57.90
2019-03-24T23:23:58.640Z,57.90
2019-03-24T23:26:26.237Z,58.41
2019-03-24T23:28:53.814Z,58.41
2019-03-24T23:31:23.692Z,58.38
2019-03-24T23:33:51.210Z,57.80
2019-03-24T23:36:18.679Z,57.80
2019-03-24T23:38:46.254Z,57.71
2019-03-24T23:41:14.058Z,57.49
2019-03-24T23:43:41.572Z,57.49
2019-03-24T23:46:09.108Z,57.76
2019-03-24T23:48:36.728Z,57.28
2019-03-24T23:51:07.638Z,57.28
2019-03-24T23:53:35.169Z,57.35
2019-03-24T23:56:02.759Z,57.37
2019-03-24T23:58:40.185Z,58.11
